sensor_id;sensor_type;location;lat;lon;timestamp;pressure;altitude;pressure_sealevel;temperature;humidity
44675;BME280;30388;52.038;-1.478;2023-02-20T00:00:33;65425.43;;;6.52;100.00
44675;BME280;30388;52.038;-1.478;2023-02-20T00:03:01;65455.18;;;7.61;100.00
44675;BME280;30388;52.038;-1.478;2023-02-20T00:05:28;65465.35;;;7.29;100.00
44675;BME280;30388;52.038;-1.478;2023-02-20T00:07:55;65440.70;;;6.98;100.00
44675;BME280;30388;52.038;-1.478;2023-02-20T00:10:23;65446.69;;;7.27;100.00
44675;BME280;30388;52.038;-1.478;2023-02-20T00:12:50;65399.15;;;6.67;100.00
44675;BME280;30388;52.038;-1.478;2023-02-20T00:15:18;65434.57;;;7.35;100.00
44675;BME280;30388;52.038;-1.478;2023-02-20T00:17:47;65344.48;;;6.47;100.00
44675;BME280;30388;52.038;-1.478;2023-02-20T00:20:16;65377.41;;;6.63;100.00
44675;BME280;30388;52.038;-1.478;2023-02-20T00:22:44;65396.99;;;6.87;100.00
44675;BME280;30388;52.038;-1.478;2023-02-20T00:25:12;65401.48;;;7.19;100.00
44675;BME280;30388;52.038;-1.478;2023-02-20T00:27:39;65320.32;;;6.16;100.00
44675;BME280;30388;52.038;-1.478;2023-02-20T00:30:13;65327.27;;;6.25;100.00
44675;BME280;30388;52.038;-1.478;2023-02-20T00:32:40;65279.28;;;5.64;100.00
44675;BME280;30388;52.038;-1.478;2023-02-20T00:35:09;65312.05;;;6.06;100.00
44675;BME280;30388;52.038;-1.478;2023-02-20T00:37:36;65348.56;;;6.52;100.00
44675;BME280;30388;52.038;-1.478;2023-02-20T00:40:04;65377.16;;;6.62;100.00
44675;BME280;30388;52.038;-1.478;2023-02-20T00:42:31;65372.42;;;6.55;100.00
44675;BME280;30388;52.038;-1.478;2023-02-20T00:44:58;65363.28;;;6.45;100.00
44675;BME280;30388;52.038;-1.478;2023-02-20T00:47:26;65345.42;;;6.48;100.00
44675;BME280;30388;52.038;-1.478;2023-02-20T00:49:53;65300.90;;;5.91;100.00
44675;BME280;30388;52.038;-1.478;2023-02-20T00:52:21;65325.24;;;6.22;100.00
44675;BME280;30388;52.038;-1.478;2023-02-20T00:54:47;65308.40;;;6.50;100.00
44675;BME280;30388;52.038;-1.478;2023-02-20T00:57:15;65344.13;;;6.46;100.00
44675;BME280;30388;52.038;-1.478;2023-02-20T00:59:42;65369.98;;;6.79;100.00
44675;BME280;30388;52.038;-1.478;2023-02-20T01:02:09;65362.01;;;6.69;100.00
44675;BME280;30388;52.038;-1.478;2023-02-20T01:04:37;65386.61;;;6.74;100.00
44675;BME280;30388;52.038;-1.478;2023-02-20T01:07:04;65355.26;;;6.60;100.00
44675;BME280;30388;52.038;-1.478;2023-02-20T01:09:31;65391.62;;;7.06;100.00
44675;BME280;30388;52.038;-1.478;2023-02-20T01:11:59;65407.91;;;7.01;100.00
44675;BME280;30388;52.038;-1.478;2023-02-20T01:14:26;65422.71;;;7.20;100.00
44675;BME280;30388;52.038;-1.478;2023-02-20T01:16:53;65470.55;;;7.80;100.00
44675;BME280;30388;52.038;-1.478;2023-02-20T01:19:22;65450.35;;;7.32;100.00
44675;BME280;30388;52.038;-1.478;2023-02-20T01:21:50;65403.24;;;6.95;100.00
44675;BME280;30388;52.038;-1.478;2023-02-20T01:24:18;65374.92;;;6.59;100.00
44675;BME280;30388;52.038;-1.478;2023-02-20T01:26:48;65454.54;;;7.86;100.00
44675;BME280;30388;52.038;-1.478;2023-02-20T01:29:16;65443.63;;;7.23;100.00
44675;BME280;30388;52.038;-1.478;2023-02-20T01:31:48;65452.51;;;7.35;100.00
44675;BME280;30388;52.038;-1.478;2023-02-20T01:34:15;65453.67;;;7.37;100.00
44675;BME280;30388;52.038;-1.478;2023-02-20T01:36:47;65430.39;;;7.07;100.00
44675;BME280;30388;52.038;-1.478;2023-02-20T01:39:17;65397.85;;;6.88;100.00
44675;BME280;30388;52.038;-1.478;2023-02-20T01:41:46;65386.04;;;6.73;100.00
44675;BME280;30388;52.038;-1.478;2023-02-20T01:44:19;65301.71;;;5.92;100.00
44675;BME280;30388;52.038;-1.478;2023-02-20T01:46:50;65340.05;;;6.40;100.00
44675;BME280;30388;52.038;-1.478;2023-02-20T01:49:24;65320.55;;;6.16;100.00
44675;BME280;30388;52.038;-1.478;2023-02-20T01:52:00;65311.78;;;6.27;100.00
44675;BME280;30388;52.038;-1.478;2023-02-20T01:54:29;65304.21;;;5.95;100.00
44675;BME280;30388;52.038;-1.478;2023-02-20T01:57:00;65285.62;;;5.71;100.00
44675;BME280;30388;52.038;-1.478;2023-02-20T01:59:31;65266.65;;;5.70;100.00
44675;BME280;30388;52.038;-1.478;2023-02-20T02:01:59;65328.99;;;6.26;100.00
44675;BME280;30388;52.038;-1.478;2023-02-20T02:04:27;65348.72;;;6.52;100.00
44675;BME280;30388;52.038;-1.478;2023-02-20T02:06:54;65365.57;;;6.73;100.00
44675;BME280;30388;52.038;-1.478;2023-02-20T02:09:30;65338.62;;;6.39;100.00
44675;BME280;30388;52.038;-1.478;2023-02-20T02:12:00;65311.38;;;6.05;100.00
44675;BME280;30388;52.038;-1.478;2023-02-20T02:14:27;65296.63;;;5.86;100.00
44675;BME280;30388;52.038;-1.478;2023-02-20T02:17:16;65324.24;;;6.21;100.00
44675;BME280;30388;52.038;-1.478;2023-02-20T02:22:27;65370.46;;;7.51;100.00
44675;BME280;30388;52.038;-1.478;2023-02-20T02:25:24;65353.86;;;6.31;100.00
44675;BME280;30388;52.038;-1.478;2023-02-20T02:28:40;65374.97;;;6.85;100.00
44675;BME280;30388;52.038;-1.478;2023-02-20T02:32:37;65343.77;;;6.46;100.00
44675;BME280;30388;52.038;-1.478;2023-02-20T02:36:32;65394.68;;;7.10;100.00
44675;BME280;30388;52.038;-1.478;2023-02-20T02:39:10;65325.48;;;6.44;100.00
44675;BME280;30388;52.038;-1.478;2023-02-20T02:41:47;65284.73;;;5.93;100.00
44675;BME280;30388;52.038;-1.478;2023-02-20T02:44:18;65274.40;;;5.57;100.00
44675;BME280;30388;52.038;-1.478;2023-02-20T02:46:55;65247.44;;;5.24;100.00
44675;BME280;30388;52.038;-1.478;2023-02-20T02:49:28;65293.78;;;6.05;100.00
44675;BME280;30388;52.038;-1.478;2023-02-20T02:51:58;65328.49;;;6.49;100.00
44675;BME280;30388;52.038;-1.478;2023-02-20T02:54:28;65316.41;;;6.11;100.00
44675;BME280;30388;52.038;-1.478;2023-02-20T02:57:19;65360.91;;;6.67;100.00
44675;BME280;30388;52.038;-1.478;2023-02-20T02:59:50;65323.05;;;6.20;100.00
44675;BME280;30388;52.038;-1.478;2023-02-20T03:02:20;65326.89;;;6.24;100.00
44675;BME280;30388;52.038;-1.478;2023-02-20T03:04:51;65317.56;;;6.13;100.00
44675;BME280;30388;52.038;-1.478;2023-02-20T03:07:20;65335.10;;;6.34;100.00
44675;BME280;30388;52.038;-1.478;2023-02-20T03:09:50;65237.37;;;5.33;100.00
44675;BME280;30388;52.038;-1.478;2023-02-20T03:12:19;65266.99;;;5.97;100.00
44675;BME280;30388;52.038;-1.478;2023-02-20T03:14:54;65282.37;;;6.16;100.00
44675;BME280;30388;52.038;-1.478;2023-02-20T03:17:28;65347.30;;;6.50;100.00
44675;BME280;30388;52.038;-1.478;2023-02-20T03:19:58;65387.63;;;7.01;100.00
44675;BME280;30388;52.038;-1.478;2023-02-20T03:22:29;65327.11;;;6.24;100.00
44675;BME280;30388;52.038;-1.478;2023-02-20T03:25:01;65326.07;;;6.45;100.00
44675;BME280;30388;52.038;-1.478;2023-02-20T03:27:36;65293.92;;;6.31;100.00
44675;BME280;30388;52.038;-1.478;2023-02-20T03:30:08;65368.31;;;6.77;100.00
44675;BME280;30388;52.038;-1.478;2023-02-20T03:32:39;65305.91;;;6.46;100.00
44675;BME280;30388;52.038;-1.478;2023-02-20T03:35:08;65319.10;;;6.15;100.00
44675;BME280;30388;52.038;-1.478;2023-02-20T03:37:38;65293.72;;;5.83;100.00
44675;BME280;30388;52.038;-1.478;2023-02-20T03:40:09;65335.96;;;6.57;100.00
44675;BME280;30388;52.038;-1.478;2023-02-20T03:42:39;65275.08;;;6.08;100.00
44675;BME280;30388;52.038;-1.478;2023-02-20T03:45:10;65307.76;;;6.49;100.00
44675;BME280;30388;52.038;-1.478;2023-02-20T03:47:42;65299.05;;;6.38;100.00
44675;BME280;30388;52.038;-1.478;2023-02-20T03:50:12;65296.60;;;5.86;100.00
44675;BME280;30388;52.038;-1.478;2023-02-20T03:52:39;65302.93;;;6.16;100.00
44675;BME280;30388;52.038;-1.478;2023-02-20T03:55:07;65231.42;;;5.53;100.00
44675;BME280;30388;52.038;-1.478;2023-02-20T03:57:38;65281.83;;;5.67;100.00
44675;BME280;30388;52.038;-1.478;2023-02-20T04:00:09;65205.27;;;5.41;100.00
44675;BME280;30388;52.038;-1.478;2023-02-20T04:02:41;65224.98;;;5.66;100.00
44675;BME280;30388;52.038;-1.478;2023-02-20T04:05:12;65209.90;;;5.25;100.00
44675;BME280;30388;52.038;-1.478;2023-02-20T04:07:49;65252.46;;;5.79;100.00
44675;BME280;30388;52.038;-1.478;2023-02-20T04:10:23;65277.07;;;5.84;100.00
44675;BME280;30388;52.038;-1.478;2023-02-20T04:12:53;65340.98;;;6.64;100.00
44675;BME280;30388;52.038;-1.478;2023-02-20T04:15:28;65282.81;;;6.18;100.00
44675;BME280;30388;52.038;-1.478;2023-02-20T04:17:59;65294.91;;;6.33;100.00
44675;BME280;30388;52.038;-1.478;2023-02-20T04:20:28;65292.45;;;5.81;100.00
44675;BME280;30388;52.038;-1.478;2023-02-20T04:22:58;65336.24;;;6.36;100.00
44675;BME280;30388;52.038;-1.478;2023-02-20T04:25:32;65282.04;;;6.16;100.00
44675;BME280;30388;52.038;-1.478;2023-02-20T04:28:04;65318.62;;;6.63;100.00
44675;BME280;30388;52.038;-1.478;2023-02-20T04:30:31;65306.11;;;6.47;100.00
44675;BME280;30388;52.038;-1.478;2023-02-20T04:32:59;65270.49;;;6.02;100.00
44675;BME280;30388;52.038;-1.478;2023-02-20T04:35:27;65256.57;;;6.07;100.00
44675;BME280;30388;52.038;-1.478;2023-02-20T04:37:54;65246.07;;;5.71;100.00
44675;BME280;30388;52.038;-1.478;2023-02-20T04:40:22;65299.03;;;6.39;100.00
44675;BME280;30388;52.038;-1.478;2023-02-20T04:42:50;65288.09;;;6.24;100.00
44675;BME280;30388;52.038;-1.478;2023-02-20T04:45:17;65297.99;;;6.10;100.00
44675;BME280;30388;52.038;-1.478;2023-02-20T04:47:44;65268.14;;;5.98;100.00
44675;BME280;30388;52.038;-1.478;2023-02-20T04:50:18;65354.66;;;7.08;100.00
44675;BME280;30388;52.038;-1.478;2023-02-20T04:52:45;65338.96;;;6.39;100.00
44675;BME280;30388;52.038;-1.478;2023-02-20T04:55:12;65307.81;;;6.50;100.00
44675;BME280;30388;52.038;-1.478;2023-02-20T04:57:39;65364.81;;;6.73;100.00
44675;BME280;30388;52.038;-1.478;2023-02-20T05:00:08;65390.02;;;7.04;100.00
44675;BME280;30388;52.038;-1.478;2023-02-20T05:02:36;65304.92;;;6.19;100.00
44675;BME280;30388;52.038;-1.478;2023-02-20T05:05:05;65327.99;;;6.48;100.00
44675;BME280;30388;52.038;-1.478;2023-02-20T05:07:32;65353.01;;;6.58;100.00
44675;BME280;30388;52.038;-1.478;2023-02-20T05:09:59;65338.09;;;6.39;100.00
44675;BME280;30388;52.038;-1.478;2023-02-20T05:12:27;65291.48;;;5.79;100.00
44675;BME280;30388;52.038;-1.478;2023-02-20T05:14:54;65301.69;;;6.41;100.00
44675;BME280;30388;52.038;-1.478;2023-02-20T05:17:21;65309.64;;;6.52;100.00
44675;BME280;30388;52.038;-1.478;2023-02-20T05:19:48;65301.44;;;6.14;100.00
44675;BME280;30388;52.038;-1.478;2023-02-20T05:22:15;65325.31;;;6.45;100.00
44675;BME280;30388;52.038;-1.478;2023-02-20T05:24:43;65365.63;;;6.74;100.00
44675;BME280;30388;52.038;-1.478;2023-02-20T05:27:12;65334.84;;;6.35;100.00
44675;BME280;30388;52.038;-1.478;2023-02-20T05:29:43;65344.89;;;6.70;100.00
44675;BME280;30388;52.038;-1.478;2023-02-20T05:32:10;65400.87;;;7.19;100.00
44675;BME280;30388;52.038;-1.478;2023-02-20T05:34:38;65394.01;;;6.84;100.00
44675;BME280;30388;52.038;-1.478;2023-02-20T05:37:05;65382.57;;;6.69;100.00
44675;BME280;30388;52.038;-1.478;2023-02-20T05:39:32;65387.83;;;7.03;100.00
44675;BME280;30388;52.038;-1.478;2023-02-20T05:41:59;65422.59;;;7.19;100.00
44675;BME280;30388;52.038;-1.478;2023-02-20T05:44:27;65408.34;;;7.28;100.00
44675;BME280;30388;52.038;-1.478;2023-02-20T05:46:54;65370.07;;;6.80;100.00
44675;BME280;30388;52.038;-1.478;2023-02-20T05:49:21;65419.12;;;7.16;100.00
44675;BME280;30388;52.038;-1.478;2023-02-20T05:51:48;65468.95;;;7.56;100.00
44675;BME280;30388;52.038;-1.478;2023-02-20T05:54:16;65363.17;;;6.71;100.00
44675;BME280;30388;52.038;-1.478;2023-02-20T05:56:45;65497.80;;;7.92;100.00
44675;BME280;30388;52.038;-1.478;2023-02-20T05:59:17;65476.52;;;7.65;100.00
44675;BME280;30388;52.038;-1.478;2023-02-20T06:01:45;65494.85;;;7.89;100.00
44675;BME280;30388;52.038;-1.478;2023-02-20T06:04:12;65463.34;;;7.27;100.00
44675;BME280;30388;52.038;-1.478;2023-02-20T06:06:40;65485.18;;;7.54;100.00
44675;BME280;30388;52.038;-1.478;2023-02-20T06:09:10;65414.97;;;6.87;100.00
44675;BME280;30388;52.038;-1.478;2023-02-20T06:11:38;65493.76;;;7.87;100.00
44675;BME280;30388;52.038;-1.478;2023-02-20T06:14:06;65535.78;;;8.40;100.00
44675;BME280;30388;52.038;-1.478;2023-02-20T06:16:34;65525.44;;;8.27;100.00
44675;BME280;30388;52.038;-1.478;2023-02-20T06:19:01;65488.76;;;7.81;100.00
44675;BME280;30388;52.038;-1.478;2023-02-20T06:21:29;65580.78;;;8.75;100.00
44675;BME280;30388;52.038;-1.478;2023-02-20T06:23:56;65521.64;;;8.23;100.00
44675;BME280;30388;52.038;-1.478;2023-02-20T06:26:23;65552.25;;;8.61;100.00
44675;BME280;30388;52.038;-1.478;2023-02-20T06:28:50;65566.03;;;8.30;100.00
44675;BME280;30388;52.038;-1.478;2023-02-20T06:31:21;65488.44;;;7.80;100.00
44675;BME280;30388;52.038;-1.478;2023-02-20T06:33:48;65480.69;;;7.48;100.00
44675;BME280;30388;52.038;-1.478;2023-02-20T06:36:20;65491.69;;;7.84;100.00
44675;BME280;30388;52.038;-1.478;2023-02-20T06:38:47;65495.52;;;7.89;100.00
44675;BME280;30388;52.038;-1.478;2023-02-20T06:41:14;65498.49;;;7.93;100.00
44675;BME280;30388;52.038;-1.478;2023-02-20T06:43:41;65498.61;;;7.94;100.00
44675;BME280;30388;52.038;-1.478;2023-02-20T06:46:08;65539.45;;;8.44;100.00
44675;BME280;30388;52.038;-1.478;2023-02-20T06:48:43;65491.35;;;7.84;100.00
44675;BME280;30388;52.038;-1.478;2023-02-20T06:51:11;65494.03;;;7.87;100.00
44675;BME280;30388;52.038;-1.478;2023-02-20T06:53:38;65519.72;;;8.21;100.00
44675;BME280;30388;52.038;-1.478;2023-02-20T06:56:06;65504.65;;;8.01;100.00
44675;BME280;30388;52.038;-1.478;2023-02-20T06:58:33;65569.86;;;8.61;100.00
44675;BME280;30388;52.038;-1.478;2023-02-20T07:01:00;65564.29;;;8.54;100.00
44675;BME280;30388;52.038;-1.478;2023-02-20T07:03:27;65533.44;;;7.88;100.00
44675;BME280;30388;52.038;-1.478;2023-02-20T07:05:55;65512.37;;;7.88;100.00
44675;BME280;30388;52.038;-1.478;2023-02-20T07:08:22;65545.44;;;8.30;100.00
44675;BME280;30388;52.038;-1.478;2023-02-20T07:10:49;65574.81;;;8.90;100.00
44675;BME280;30388;52.038;-1.478;2023-02-20T07:13:16;65587.51;;;9.06;100.00
44675;BME280;30388;52.038;-1.478;2023-02-20T07:15:43;65638.08;;;9.21;100.00
44675;BME280;30388;52.038;-1.478;2023-02-20T07:18:11;65606.42;;;8.81;100.00
44675;BME280;30388;52.038;-1.478;2023-02-20T07:20:37;65592.76;;;8.64;100.00
44675;BME280;30388;52.038;-1.478;2023-02-20T07:23:04;65676.38;;;9.69;100.00
44675;BME280;30388;52.038;-1.478;2023-02-20T07:25:31;65664.51;;;9.32;100.00
44675;BME280;30388;52.038;-1.478;2023-02-20T07:27:59;65672.09;;;9.43;100.00
44675;BME280;30388;52.038;-1.478;2023-02-20T07:30:28;65676.82;;;9.48;100.00
44675;BME280;30388;52.038;-1.478;2023-02-20T07:32:55;65664.02;;;9.54;100.00
44675;BME280;30388;52.038;-1.478;2023-02-20T07:35:22;65681.38;;;9.53;100.00
44675;BME280;30388;52.038;-1.478;2023-02-20T07:37:49;65620.12;;;8.98;100.00
44675;BME280;30388;52.038;-1.478;2023-02-20T07:40:16;65650.75;;;9.37;100.00
44675;BME280;30388;52.038;-1.478;2023-02-20T07:42:44;65658.59;;;9.24;100.00
44675;BME280;30388;52.038;-1.478;2023-02-20T07:45:11;65638.01;;;9.21;100.00
44675;BME280;30388;52.038;-1.478;2023-02-20T07:47:38;65635.94;;;8.96;100.00
44675;BME280;30388;52.038;-1.478;2023-02-20T07:50:06;65627.39;;;8.85;100.00
44675;BME280;30388;52.038;-1.478;2023-02-20T07:52:32;65637.85;;;8.98;100.00
44675;BME280;30388;52.038;-1.478;2023-02-20T07:55:01;65655.91;;;9.21;100.00
44675;BME280;30388;52.038;-1.478;2023-02-20T07:57:35;65636.86;;;8.98;100.00
44675;BME280;30388;52.038;-1.478;2023-02-20T08:00:03;65702.65;;;9.80;100.00
44675;BME280;30388;52.038;-1.478;2023-02-20T08:02:31;65646.57;;;9.33;100.00
44675;BME280;30388;52.038;-1.478;2023-02-20T08:04:57;65644.96;;;9.07;100.00
44675;BME280;30388;52.038;-1.478;2023-02-20T08:07:25;65693.73;;;9.47;100.00
44675;BME280;30388;52.038;-1.478;2023-02-20T08:09:52;65687.20;;;9.83;100.00
44675;BME280;30388;52.038;-1.478;2023-02-20T08:12:20;65654.71;;;9.20;100.00
44675;BME280;30388;52.038;-1.478;2023-02-20T08:14:49;65632.41;;;9.14;100.00
44675;BME280;30388;52.038;-1.478;2023-02-20T08:17:16;65605.65;;;8.80;100.00
44675;BME280;30388;52.038;-1.478;2023-02-20T08:19:43;65617.53;;;8.95;100.00
44675;BME280;30388;52.038;-1.478;2023-02-20T08:22:10;65649.67;;;9.14;100.00
44675;BME280;30388;52.038;-1.478;2023-02-20T08:24:38;65585.71;;;8.55;100.00
44675;BME280;30388;52.038;-1.478;2023-02-20T08:27:05;65685.11;;;9.37;100.00
44675;BME280;30388;52.038;-1.478;2023-02-20T08:29:32;65660.68;;;9.49;100.00
44675;BME280;30388;52.038;-1.478;2023-02-20T08:31:59;65625.57;;;9.05;100.00
44675;BME280;30388;52.038;-1.478;2023-02-20T08:34:27;65659.92;;;9.48;100.00
44675;BME280;30388;52.038;-1.478;2023-02-20T08:36:54;65607.31;;;8.59;100.00
44675;BME280;30388;52.038;-1.478;2023-02-20T08:39:22;65657.29;;;9.45;100.00
44675;BME280;30388;52.038;-1.478;2023-02-20T08:41:49;65669.10;;;9.39;100.00
44675;BME280;30388;52.038;-1.478;2023-02-20T08:44:16;65677.33;;;9.48;100.00
44675;BME280;30388;52.038;-1.478;2023-02-20T08:46:46;65668.65;;;9.37;100.00
44675;BME280;30388;52.038;-1.478;2023-02-20T08:49:13;65664.31;;;9.32;100.00
44675;BME280;30388;52.038;-1.478;2023-02-20T08:51:43;65640.24;;;9.23;100.00
44675;BME280;30388;52.038;-1.478;2023-02-20T08:54:10;65697.53;;;9.52;100.00
44675;BME280;30388;52.038;-1.478;2023-02-20T08:56:37;65697.77;;;9.75;100.00
44675;BME280;30388;52.038;-1.478;2023-02-20T08:59:04;65667.82;;;9.59;100.00
44675;BME280;30388;52.038;-1.478;2023-02-20T09:01:32;65592.28;;;8.63;100.00
44675;BME280;30388;52.038;-1.478;2023-02-20T09:03:59;65582.83;;;8.52;100.00
44675;BME280;30388;52.038;-1.478;2023-02-20T09:06:27;65583.64;;;8.53;100.00
44675;BME280;30388;52.038;-1.478;2023-02-20T09:08:54;65582.94;;;9.00;100.00
44675;BME280;30388;52.038;-1.478;2023-02-20T09:11:21;65532.51;;;8.14;100.00
44675;BME280;30388;52.038;-1.478;2023-02-20T09:13:48;65560.87;;;8.23;100.00
44675;BME280;30388;52.038;-1.478;2023-02-20T09:16:19;65652.37;;;9.17;100.00
44675;BME280;30388;52.038;-1.478;2023-02-20T09:18:47;65618.03;;;8.96;100.00
44675;BME280;30388;52.038;-1.478;2023-02-20T09:21:16;65608.20;;;8.83;100.00
44675;BME280;30388;52.038;-1.478;2023-02-20T09:23:44;65683.13;;;9.34;100.00
44675;BME280;30388;52.038;-1.478;2023-02-20T09:26:11;65708.85;;;9.88;100.00
44675;BME280;30388;52.038;-1.478;2023-02-20T09:28:38;65671.12;;;9.41;100.00
44675;BME280;30388;52.038;-1.478;2023-02-20T09:31:05;65741.34;;;10.07;100.00
44675;BME280;30388;52.038;-1.478;2023-02-20T09:33:32;65772.69;;;10.47;100.00
44675;BME280;30388;52.038;-1.478;2023-02-20T09:36:00;65809.25;;;10.93;100.00
44675;BME280;30388;52.038;-1.478;2023-02-20T09:38:27;65724.21;;;10.08;100.00
44675;BME280;30388;52.038;-1.478;2023-02-20T09:40:57;65742.93;;;10.08;100.00
44675;BME280;30388;52.038;-1.478;2023-02-20T09:43:35;65759.88;;;10.04;100.00
44675;BME280;30388;52.038;-1.478;2023-02-20T09:46:08;65710.07;;;9.68;100.00
44675;BME280;30388;52.038;-1.478;2023-02-20T09:48:49;65749.99;;;10.18;100.00
44675;BME280;30388;52.038;-1.478;2023-02-20T09:51:22;65719.96;;;9.81;100.00
44675;BME280;30388;52.038;-1.478;2023-02-20T09:53:54;65720.82;;;10.03;100.00
44675;BME280;30388;52.038;-1.478;2023-02-20T09:56:25;65780.95;;;10.57;100.00
44675;BME280;30388;52.038;-1.478;2023-02-20T09:58:57;65728.27;;;9.90;100.00
44675;BME280;30388;52.038;-1.478;2023-02-20T10:01:30;65813.74;;;10.99;100.00
44675;BME280;30388;52.038;-1.478;2023-02-20T10:04:02;65786.09;;;10.37;100.00
44675;BME280;30388;52.038;-1.478;2023-02-20T10:06:32;65849.10;;;11.17;100.00
44675;BME280;30388;52.038;-1.478;2023-02-20T10:09:01;65831.95;;;10.72;100.00
44675;BME280;30388;52.038;-1.478;2023-02-20T10:11:37;65868.59;;;11.20;100.00
44675;BME280;30388;52.038;-1.478;2023-02-20T10:14:21;65911.85;;;11.75;100.00
44675;BME280;30388;52.038;-1.478;2023-02-20T10:16:58;65827.64;;;10.68;100.00
44675;BME280;30388;52.038;-1.478;2023-02-20T10:19:34;65862.23;;;11.11;100.00
44675;BME280;30388;52.038;-1.478;2023-02-20T10:22:08;65825.62;;;10.87;100.00
44675;BME280;30388;52.038;-1.478;2023-02-20T10:24:45;65904.18;;;11.64;100.00
44675;BME280;30388;52.038;-1.478;2023-02-20T10:27:27;65861.94;;;11.11;100.00
44675;BME280;30388;52.038;-1.478;2023-02-20T10:29:57;65782.64;;;10.60;100.00
44675;BME280;30388;52.038;-1.478;2023-02-20T10:32:29;65882.86;;;11.37;100.00
44675;BME280;30388;52.038;-1.478;2023-02-20T10:35:00;65899.06;;;11.58;100.00
44675;BME280;30388;52.038;-1.478;2023-02-20T10:37:33;65913.89;;;11.50;100.00
44675;BME280;30388;52.038;-1.478;2023-02-20T10:40:07;65963.44;;;12.12;100.00
44675;BME280;30388;52.038;-1.478;2023-02-20T10:42:42;65936.23;;;11.78;100.00
44675;BME280;30388;52.038;-1.478;2023-02-20T10:45:13;65992.46;;;12.50;100.00
44675;BME280;30388;52.038;-1.478;2023-02-20T10:47:45;66008.55;;;12.47;100.00
44675;BME280;30388;52.038;-1.478;2023-02-20T10:50:18;66106.02;;;13.21;100.00
44675;BME280;30388;52.038;-1.478;2023-02-20T10:52:53;66153.57;;;13.81;100.00
44675;BME280;30388;52.038;-1.478;2023-02-20T10:55:26;66093.44;;;13.54;100.00
44675;BME280;30388;52.038;-1.478;2023-02-20T10:57:57;66044.82;;;12.92;100.00
44675;BME280;30388;52.038;-1.478;2023-02-20T11:00:32;66154.51;;;13.82;100.00
44675;BME280;30388;52.038;-1.478;2023-02-20T11:03:05;66099.26;;;13.12;100.00
44675;BME280;30388;52.038;-1.478;2023-02-20T11:05:40;66118.03;;;13.36;100.00
44675;BME280;30388;52.038;-1.478;2023-02-20T11:08:10;66090.83;;;13.28;100.00
44675;BME280;30388;52.038;-1.478;2023-02-20T11:10:37;66083.51;;;13.18;100.00
44675;BME280;30388;52.038;-1.478;2023-02-20T11:13:04;66123.41;;;13.91;100.00
44675;BME280;30388;52.038;-1.478;2023-02-20T11:15:36;66117.70;;;13.36;100.00
44675;BME280;30388;52.038;-1.478;2023-02-20T11:18:15;66179.05;;;14.39;100.00
44675;BME280;30388;52.038;-1.478;2023-02-20T11:20:46;66160.67;;;13.90;100.00
44675;BME280;30388;52.038;-1.478;2023-02-20T11:23:35;66149.17;;;13.53;100.00
44675;BME280;30388;52.038;-1.478;2023-02-20T11:26:26;66159.10;;;13.88;100.00
44675;BME280;30388;52.038;-1.478;2023-02-20T11:28:58;66133.23;;;13.55;100.00
44675;BME280;30388;52.038;-1.478;2023-02-20T11:31:26;66126.81;;;13.47;100.00
44675;BME280;30388;52.038;-1.478;2023-02-20T11:33:54;66152.56;;;14.28;100.00
44675;BME280;30388;52.038;-1.478;2023-02-20T11:36:24;66168.87;;;13.99;100.00
44675;BME280;30388;52.038;-1.478;2023-02-20T11:38:57;66171.47;;;14.03;100.00
44675;BME280;30388;52.038;-1.478;2023-02-20T11:41:28;66012.15;;;12.51;100.00
44675;BME280;30388;52.038;-1.478;2023-02-20T11:44:27;66082.75;;;13.18;100.00
44675;BME280;30388;52.038;-1.478;2023-02-20T11:47:19;66148.25;;;13.75;100.00
44675;BME280;30388;52.038;-1.478;2023-02-20T11:49:47;66144.22;;;13.68;100.00
44675;BME280;30388;52.038;-1.478;2023-02-20T11:52:16;66181.37;;;14.15;100.00
44675;BME280;30388;52.038;-1.478;2023-02-20T11:54:44;66268.20;;;14.54;100.00
44675;BME280;30388;52.038;-1.478;2023-02-20T11:57:21;66244.35;;;14.50;100.00
44675;BME280;30388;52.038;-1.478;2023-02-20T12:00:08;66285.99;;;15.04;100.00
44675;BME280;30388;52.038;-1.478;2023-02-20T12:02:47;66226.98;;;14.29;100.00
44675;BME280;30388;52.038;-1.478;2023-02-20T12:05:15;66343.37;;;15.75;100.00
44675;BME280;30388;52.038;-1.478;2023-02-20T12:07:45;66267.98;;;14.81;100.00
44675;BME280;30388;52.038;-1.478;2023-02-20T12:10:28;66272.83;;;14.87;100.00
44675;BME280;30388;52.038;-1.478;2023-02-20T12:12:57;66311.05;;;15.35;100.00
44675;BME280;30388;52.038;-1.478;2023-02-20T12:15:26;66380.45;;;15.95;100.00
44675;BME280;30388;52.038;-1.478;2023-02-20T12:18:23;66313.26;;;15.37;100.00
44675;BME280;30388;52.038;-1.478;2023-02-20T12:21:01;66368.56;;;16.07;100.00
44675;BME280;30388;52.038;-1.478;2023-02-20T12:23:38;66370.86;;;15.84;100.00
44675;BME280;30388;52.038;-1.478;2023-02-20T12:26:18;66337.30;;;15.41;100.00
44675;BME280;30388;52.038;-1.478;2023-02-20T12:28:56;66248.84;;;15.01;100.00
44675;BME280;30388;52.038;-1.478;2023-02-20T12:31:37;66275.78;;;14.89;100.00
44675;BME280;30388;52.038;-1.478;2023-02-20T12:34:22;66356.08;;;15.91;100.00
44675;BME280;30388;52.038;-1.478;2023-02-20T12:36:56;66328.77;;;15.57;100.00
44675;BME280;30388;52.038;-1.478;2023-02-20T12:39:30;66431.89;;;16.60;100.00
44675;BME280;30388;52.038;-1.478;2023-02-20T12:42:12;66459.38;;;16.44;100.00
44675;BME280;30388;52.038;-1.478;2023-02-20T12:45:04;66545.65;;;17.53;100.00
44675;BME280;30388;52.038;-1.478;2023-02-20T12:47:39;66506.92;;;16.83;100.00
44675;BME280;30388;52.038;-1.478;2023-02-20T12:50:37;66569.41;;;17.62;100.00
44675;BME280;30388;52.038;-1.478;2023-02-20T12:53:17;66676.67;;;18.73;100.00
44675;BME280;30388;52.038;-1.478;2023-02-20T12:55:58;66555.73;;;17.44;100.00
44675;BME280;30388;52.038;-1.478;2023-02-20T12:58:43;66596.41;;;17.73;100.00
44675;BME280;30388;52.038;-1.478;2023-02-20T13:01:14;66659.35;;;18.25;100.00
44675;BME280;30388;52.038;-1.478;2023-02-20T13:03:48;66533.79;;;16.67;100.00
44675;BME280;30388;52.038;-1.478;2023-02-20T13:06:23;66577.54;;;17.23;100.00
44675;BME280;30388;52.038;-1.478;2023-02-20T13:08:59;66605.90;;;17.58;100.00
44675;BME280;30388;52.038;-1.478;2023-02-20T13:11:34;66485.38;;;16.56;100.00